Ring-n-wet — WDE9775 — position and weather

sailwx.info

Track history (hours):
 
Tides and Currents Weather Stations Pressure Air Temp Water Temp Dewpoint Dewpoint Depression Visibility Wind Speed Wind Dir Waves Ship Positions

Ring-n-wet

Owner: Ring, Carl D, Memphis, TN. More information available from US FCC via Universal Licensing System and Coast Guard Vessel Documentation Center.

Last reported at 2017-Nov-19 22:16 UTC. Time now 2017-Nov-22 14:48 UTC.
Position N 25°59' W 080°07'.

Length 17 m.

Type: Pleasure craft. MMSI: 367421150.

Date/timePositionNaut miles runAvg speedWind from/ knotsBaromVisibWave heightAir tempDewpointWater temp
2017-Nov-19 22:16N 25°59' W 080°07'2 4.8
2017-Nov-19 21:53N 25°57' W 080°08'3 6.9
2017-Nov-19 21:30N 25°54' W 080°08'0 0.0
2017-Nov-18 21:43N 25°55' W 080°08'1 3.1
2017-Nov-18 21:30N 25°55' W 080°08'4 5.6
2017-Nov-18 20:52N 25°58' W 080°05'410.7
2017-Nov-18 20:30N 25°54' W 080°06'3 5.0
2017-Nov-18 20:00N 25°57' W 080°08'2 3.6
2017-Nov-18 19:28N 25°59' W 080°07'  
Track history (hours):
 
Tides and Currents Weather Stations Pressure Air Temp Water Temp Dewpoint Dewpoint Depression Visibility Wind Speed Wind Dir Waves Ship Positions

Ring-n-wet

Owner: Ring, Carl D, Memphis, TN. More information available from US FCC via Universal Licensing System and Coast Guard Vessel Documentation Center.

Last reported at 2017-Nov-19 22:16 UTC. Time now 2017-Nov-22 14:48 UTC.
Position N 25°59' W 080°07'.

Length 17 m.

Type: Pleasure craft. MMSI: 367421150.

Date/timePositionNaut miles runAvg speedWind from/ knotsBaromVisibWave heightAir tempDewpointWater temp
2017-Nov-19 22:16N 25°59' W 080°07'2 4.8
2017-Nov-19 21:53N 25°57' W 080°08'3 6.9
2017-Nov-19 21:30N 25°54' W 080°08'0 0.0
2017-Nov-18 21:43N 25°55' W 080°08'1 3.1
2017-Nov-18 21:30N 25°55' W 080°08'4 5.6
2017-Nov-18 20:52N 25°58' W 080°05'410.7
2017-Nov-18 20:30N 25°54' W 080°06'3 5.0
2017-Nov-18 20:00N 25°57' W 080°08'2 3.6
2017-Nov-18 19:28N 25°59' W 080°07'  

Dump ship's entire track history